Time;durP1;ratioP1;P1;durP2;ratioP2;P2;SDS_P1;SDS_P2;PMS_P1;PMS_P2;Temp;Humidity;BMP_temperature;BMP_pressure;BME280_temperature;BME280_humidity;BME280_pressure;Samples;Min_cycle;Max_cycle;Signal;HPM_P1;HPM_P2
2023/02/16 00:00:18;;;;;;;5.70;2.30;;;;;;;-0.97;67.50;101769.17;107346;1252;73656;-85
2023/02/16 00:02:47;;;;;;;5.70;2.10;;;;;;;-1.02;67.36;101774.11;107295;1253;60538;-86
2023/02/16 00:05:24;;;;;;;3.10;1.70;;;;;;;-1.08;67.33;101773.91;107187;1254;61318;-87
2023/02/16 00:08:02;;;;;;;4.80;1.80;;;;;;;-1.15;67.65;101779.17;107272;1254;74831;-86
2023/02/16 00:10:35;;;;;;;4.90;1.90;;;;;;;-1.22;67.61;101782.90;107423;1253;64816;-84
2023/02/16 00:16:22;;;;;;;2.30;1.10;;;;;;;-1.37;67.90;101785.02;107245;1252;61194;-85
2023/02/16 00:18:49;;;;;;;2.70;1.30;;;;;;;-1.43;68.24;101784.79;107187;1256;60318;-84
2023/02/16 00:21:17;;;;;;;4.80;1.30;;;;;;;-1.49;68.51;101792.13;107218;1254;75090;-85
2023/02/16 00:23:45;;;;;;;4.60;1.30;;;;;;;-1.51;68.74;101793.66;107321;1254;64701;-85
2023/02/16 00:26:22;;;;;;;1.40;1.20;;;;;;;-1.51;68.98;101792.11;107332;1254;72942;-85
2023/02/16 00:28:54;;;;;;;0.80;0.80;;;;;;;-1.51;69.24;101794.85;107402;1256;60530;-85
2023/02/16 00:31:25;;;;;;;3.80;1.40;;;;;;;-1.52;69.14;101794.50;107158;1253;61072;-84
2023/02/16 00:33:55;;;;;;;4.40;1.20;;;;;;;-1.53;69.30;101797.91;107217;1254;75426;-86
2023/02/16 00:36:25;;;;;;;2.50;1.50;;;;;;;-1.58;69.25;101797.89;107396;1254;62505;-84
2023/02/16 00:38:52;;;;;;;2.10;1.50;;;;;;;-1.65;69.13;101799.02;107447;1253;73417;-84
2023/02/16 00:44:15;;;;;;;3.70;1.60;;;;;;;-1.81;69.40;101794.40;107582;1254;61311;-86
2023/02/16 00:46:44;;;;;;;2.30;1.10;;;;;;;-1.86;69.55;101797.95;107527;1257;72907;-84
2023/02/16 00:49:18;;;;;;;3.80;1.60;;;;;;;-1.90;69.80;101797.73;107674;1254;64628;-85
2023/02/16 00:51:48;;;;;;;3.00;1.80;;;;;;;-1.95;70.10;101798.02;107584;1253;71662;-84
2023/02/16 00:54:15;;;;;;;4.10;1.60;;;;;;;-1.97;70.10;101796.30;108475;1253;62968;-83
2023/02/16 00:56:42;;;;;;;5.00;1.70;;;;;;;-2.01;70.19;101795.56;107883;1253;60479;-85
2023/02/16 00:59:14;;;;;;;5.50;1.80;;;;;;;-2.05;70.49;101796.04;107209;1259;74793;-85
2023/02/16 01:01:41;;;;;;;3.20;1.80;;;;;;;-2.08;70.80;101796.86;107183;1259;64497;-83
2023/02/16 01:04:11;;;;;;;7.30;1.60;;;;;;;-2.08;71.24;101793.77;107468;1261;72434;-83
2023/02/16 01:12:16;;;;;;;3.50;1.70;;;;;;;-2.07;71.17;101796.70;107409;1254;73826;-83
2023/02/16 01:14:47;;;;;;;3.30;1.40;;;;;;;-2.10;71.07;101793.23;107455;1254;62531;-84
2023/02/16 01:17:14;;;;;;;5.40;1.80;;;;;;;-2.15;70.96;101789.92;107330;1256;73542;-85
2023/02/16 01:19:43;;;;;;;2.20;1.30;;;;;;;-2.22;71.12;101790.52;107394;1256;61488;-84
2023/02/16 01:22:11;;;;;;;3.80;1.70;;;;;;;-2.30;71.18;101792.84;107377;1254;60532;-84
2023/02/16 01:24:41;;;;;;;6.50;2.00;;;;;;;-2.38;71.18;101792.06;107454;1256;74829;-84
2023/02/16 01:27:12;;;;;;;1.90;1.20;;;;;;;-2.43;71.46;101789.93;107374;1253;63906;-85
2023/02/16 01:29:39;;;;;;;3.50;1.40;;;;;;;-2.45;71.75;101792.64;107462;1253;71935;-84
2023/02/16 01:32:11;;;;;;;2.70;1.30;;;;;;;-2.45;71.93;101787.70;107290;1254;60766;-86
2023/02/16 01:34:38;;;;;;;3.00;2.00;;;;;;;-2.42;72.06;101791.15;107199;1253;61133;-84
2023/02/16 01:37:05;;;;;;;3.30;1.70;;;;;;;-2.40;72.07;101790.84;107669;1254;74475;-84
2023/02/16 01:39:32;;;;;;;4.70;1.30;;;;;;;-2.40;72.27;101788.42;107897;1253;62820;-84
2023/02/16 01:42:25;;;;;;;3.70;1.50;;;;;;;-2.40;72.20;101788.60;107223;1254;73691;-86
2023/02/16 01:44:59;;;;;;;5.00;2.60;;;;;;;-2.41;72.21;101791.51;107280;1254;60447;-86
2023/02/16 01:47:48;;;;;;;5.00;3.50;;;;;;;-2.40;72.35;101789.14;107369;1253;61267;-85
2023/02/16 01:50:22;;;;;;;2.40;2.10;;;;;;;-2.40;72.13;101797.34;107342;1252;74895;-85
2023/02/16 01:52:54;;;;;;;5.40;2.60;;;;;;;-2.42;72.27;101798.35;107123;1257;62862;-84
2023/02/16 01:55:28;;;;;;;5.30;2.20;;;;;;;-2.41;72.48;101801.44;107077;1254;73624;-86
2023/02/16 01:57:58;;;;;;;5.50;2.90;;;;;;;-2.42;72.42;101803.65;107182;1252;61980;-84
2023/02/16 02:00:32;;;;;;;5.20;4.00;;;;;;;-2.45;72.69;101801.21;107246;1254;60809;-83
2023/02/16 02:05:47;;;;;;;6.80;3.60;;;;;;;-2.38;72.92;101809.86;107123;1253;65532;-87
2023/02/16 02:08:37;;;;;;;3.70;3.00;;;;;;;-2.35;72.65;101813.15;107205;1252;73547;-85
2023/02/16 02:11:31;;;;;;;4.40;2.20;;;;;;;-2.32;72.72;101815.42;107155;1254;60790;-84
2023/02/16 02:14:10;;;;;;;3.50;2.30;;;;;;;-2.29;72.50;101819.05;107081;1259;60399;-84
2023/02/16 02:16:39;;;;;;;5.80;2.10;;;;;;;-2.28;72.73;101819.06;107042;1259;75023;-84
2023/02/16 02:19:06;;;;;;;4.90;1.90;;;;;;;-2.30;72.49;101820.42;107453;1254;63877;-85
2023/02/16 02:25:08;;;;;;;4.20;2.00;;;;;;;-2.39;72.26;101818.25;107280;1254;61359;-85
2023/02/16 02:27:55;;;;;;;5.00;2.20;;;;;;;-2.43;72.06;101822.80;107245;1254;61381;-85
2023/02/16 02:30:25;;;;;;;5.20;2.10;;;;;;;-2.46;72.23;101821.58;107246;1255;74529;-86
2023/02/16 02:33:09;;;;;;;3.90;2.70;;;;;;;-2.51;72.38;101820.66;107735;1254;64577;-85
2023/02/16 02:36:09;;;;;;;4.80;2.20;;;;;;;-2.55;72.66;101821.45;107226;1255;71297;-84
2023/02/16 02:38:49;;;;;;;3.80;2.20;;;;;;;-2.55;72.89;101825.73;107220;1256;60270;-85
2023/02/16 02:42:02;;;;;;;5.00;2.30;;;;;;;-2.56;72.97;101829.83;107111;1259;61104;-84
2023/02/16 02:44:16;;;;;;;2.50;2.10;;;;;;;-2.55;72.97;101835.69;107235;1256;73896;-83
2023/02/16 02:46:46;;;;;;;5.10;2.90;;;;;;;-2.56;72.82;101840.61;107246;1254;63604;-84
2023/02/16 02:49:14;;;;;;;6.00;3.40;;;;;;;-2.56;72.72;101847.29;107099;1253;72637;-86
2023/02/16 02:51:42;;;;;;;5.20;3.10;;;;;;;-2.59;72.73;101850.69;107281;1256;60415;-84
2023/02/16 03:02:44;;;;;;;16.40;7.30;;;;;;;-2.89;72.92;101838.95;107775;1254;73783;-82
2023/02/16 03:05:11;;;;;;;16.20;6.50;;;;;;;-2.92;73.21;101839.06;108132;1254;61056;-84
2023/02/16 03:07:47;;;;;;;14.80;7.40;;;;;;;-2.93;73.46;101843.35;107114;1254;60530;-85
2023/02/16 03:13:06;;;;;;;18.30;7.40;;;;;;;-2.91;73.77;101843.71;107147;1254;64212;-85
2023/02/16 03:15:33;;;;;;;14.60;6.60;;;;;;;-2.89;73.69;101847.17;107602;1254;73406;-84
2023/02/16 03:29:17;;;;;;;9.20;4.40;;;;;;;-3.09;73.34;101853.69;106967;1254;72712;-86
2023/02/16 03:31:45;;;;;;;9.70;3.30;;;;;;;-3.13;73.22;101848.15;106976;1259;63783;-87
2023/02/16 03:34:13;;;;;;;9.50;5.70;;;;;;;-3.17;73.21;101843.98;106962;1254;60454;-88
2023/02/16 03:36:43;;;;;;;4.90;3.50;;;;;;;-3.21;73.73;101843.93;106996;1254;73434;-85
2023/02/16 03:39:12;;;;;;;9.00;4.30;;;;;;;-3.22;73.96;101842.73;107066;1253;64989;-84
2023/02/16 03:41:42;;;;;;;13.30;5.10;;;;;;;-3.21;73.96;101846.14;107038;1257;73119;-83
2023/02/16 03:44:09;;;;;;;11.20;4.80;;;;;;;-3.21;74.01;101845.63;106874;1259;60418;-86
2023/02/16 03:46:39;;;;;;;7.60;4.80;;;;;;;-3.22;73.83;101847.68;108305;1252;61196;-84
2023/02/16 03:49:07;;;;;;;18.30;4.80;;;;;;;-3.23;74.05;101848.51;107297;1256;72865;-85
2023/02/16 03:51:36;;;;;;;13.00;5.80;;;;;;;-3.28;73.74;101850.65;107262;1253;63426;-84
2023/02/16 03:54:03;;;;;;;16.60;5.40;;;;;;;-3.33;73.69;101852.09;107350;1256;74650;-84
2023/02/16 03:56:32;;;;;;;13.50;6.20;;;;;;;-3.36;73.47;101853.76;107850;1254;61888;-82
2023/02/16 03:58:59;;;;;;;23.70;9.80;;;;;;;-3.40;73.65;101859.34;109059;1254;60120;-85
2023/02/16 04:01:27;;;;;;;17.60;8.10;;;;;;;-3.40;73.82;101863.08;108307;1254;74966;-84
2023/02/16 04:03:54;;;;;;;16.20;8.60;;;;;;;-3.42;74.27;101869.73;107416;1253;63277;-85
2023/02/16 04:06:21;;;;;;;22.70;10.00;;;;;;;-3.41;74.42;101877.79;107276;1256;72536;-86
2023/02/16 04:08:49;;;;;;;18.00;8.70;;;;;;;-3.38;74.56;101875.61;107156;1256;60524;-85
2023/02/16 04:14:23;;;;;;;18.60;7.80;;;;;;;-3.34;74.47;101886.78;107527;1254;74693;-85
2023/02/16 04:16:54;;;;;;;23.20;10.40;;;;;;;-3.37;74.13;101891.70;107362;1254;64828;-86
2023/02/16 04:19:23;;;;;;;24.50;10.20;;;;;;;-3.40;73.86;101892.14;107436;1256;73654;-86
2023/02/16 04:21:52;;;;;;;23.40;10.40;;;;;;;-3.46;73.89;101896.16;107182;1255;60956;-84
2023/02/16 04:24:19;;;;;;;19.40;8.70;;;;;;;-3.53;73.64;101899.44;107319;1256;61154;-85
2023/02/16 04:26:48;;;;;;;18.00;8.80;;;;;;;-3.58;73.80;101899.67;107408;1254;75185;-85
2023/02/16 04:29:16;;;;;;;16.20;8.30;;;;;;;-3.64;73.91;101899.06;108285;1254;65844;-84
2023/02/16 04:31:42;;;;;;;18.10;8.20;;;;;;;-3.67;74.02;101902.08;107187;1256;72319;-86
2023/02/16 04:34:10;;;;;;;15.50;8.20;;;;;;;-3.69;74.27;101901.54;107274;1256;60511;-85
2023/02/16 04:36:39;;;;;;;10.90;6.30;;;;;;;-3.68;74.76;101903.27;107174;1254;61262;-84
2023/02/16 04:39:06;;;;;;;13.60;7.20;;;;;;;-3.64;74.93;101900.08;107209;1254;73847;-85
2023/02/16 04:41:34;;;;;;;12.00;7.50;;;;;;;-3.60;74.86;101907.86;107273;1254;65163;-84
2023/02/16 04:44:02;;;;;;;16.10;7.60;;;;;;;-3.56;74.68;101902.30;107314;1254;72595;-83
2023/02/16 04:46:29;;;;;;;15.80;8.00;;;;;;;-3.55;74.39;101903.68;107121;1254;60348;-84
2023/02/16 04:48:57;;;;;;;11.40;6.30;;;;;;;-3.56;74.45;101900.58;107222;1253;60506;-84
2023/02/16 04:51:24;;;;;;;15.90;7.00;;;;;;;-3.58;74.22;101904.30;107254;1256;73834;-84
2023/02/16 04:53:52;;;;;;;12.60;6.90;;;;;;;-3.62;73.87;101905.93;107226;1253;64520;-84
2023/02/16 04:56:22;;;;;;;14.90;6.20;;;;;;;-3.66;73.93;101907.05;107122;1258;72379;-85
2023/02/16 04:58:55;;;;;;;16.10;7.00;;;;;;;-3.69;73.89;101903.93;107326;1253;62926;-83
2023/02/16 05:01:23;;;;;;;17.40;8.80;;;;;;;-3.74;74.02;101903.33;107261;1254;60454;-85
2023/02/16 05:03:51;;;;;;;15.60;8.40;;;;;;;-3.77;74.08;101900.35;107753;1253;73689;-86
2023/02/16 05:06:19;;;;;;;17.40;8.40;;;;;;;-3.77;74.54;101902.23;108091;1254;63157;-86
2023/02/16 05:08:47;;;;;;;16.80;7.60;;;;;;;-3.76;74.77;101901.06;107462;1254;72953;-85
2023/02/16 05:16:50;;;;;;;17.70;8.30;;;;;;;-3.66;74.53;101911.16;107545;1254;73537;-85
2023/02/16 05:19:20;;;;;;;24.40;9.40;;;;;;;-3.65;74.63;101913.23;107342;1254;63497;-87
2023/02/16 05:21:49;;;;;;;22.70;11.60;;;;;;;-3.65;74.22;101912.72;107523;1254;72452;-84
2023/02/16 05:24:17;;;;;;;17.10;9.20;;;;;;;-3.65;74.15;101911.52;107348;1256;60398;-86
2023/02/16 05:26:44;;;;;;;15.40;8.90;;;;;;;-3.66;73.90;101914.58;107506;1254;61945;-85
2023/02/16 05:29:12;;;;;;;20.60;9.40;;;;;;;-3.64;74.19;101910.51;107312;1255;74607;-86
2023/02/16 05:31:42;;;;;;;21.40;9.60;;;;;;;-3.62;74.05;101914.48;107800;1257;65422;-86
2023/02/16 05:34:10;;;;;;;26.20;11.90;;;;;;;-3.58;74.23;101915.58;107602;1254;72799;-86
2023/02/16 05:36:37;;;;;;;22.30;11.80;;;;;;;-3.53;74.38;101916.20;107839;1258;60408;-84
2023/02/16 05:39:04;;;;;;;24.90;12.60;;;;;;;-3.48;74.41;101913.71;107504;1259;61187;-86
2023/02/16 05:41:31;;;;;;;26.70;13.20;;;;;;;-3.41;74.27;101911.78;107444;1255;73991;-85
2023/02/16 05:44:00;;;;;;;30.90;15.60;;;;;;;-3.34;74.16;101913.29;107198;1257;63736;-86
2023/02/16 05:46:31;;;;;;;41.10;18.70;;;;;;;-3.26;74.09;101915.48;107506;1254;72467;-86
2023/02/16 05:48:58;;;;;;;49.40;22.40;;;;;;;-3.13;74.05;101918.80;107516;1254;60516;-87
2023/02/16 05:51:26;;;;;;;45.30;18.50;;;;;;;-2.80;74.50;101924.31;107082;1254;61279;-86
2023/02/16 05:53:53;;;;;;;45.00;20.10;;;;;;;-2.39;74.20;101925.60;107958;1253;74644;-80
2023/02/16 05:56:21;;;;;;;38.80;16.60;;;;;;;-2.01;73.16;101924.77;107781;1254;64854;-86
2023/02/16 05:58:49;;;;;;;31.20;13.90;;;;;;;-1.56;72.23;101923.74;107260;1257;71986;-86
2023/02/16 06:01:16;;;;;;;27.90;13.20;;;;;;;-1.06;71.34;101925.63;107258;1256;61613;-85
2023/02/16 06:03:43;;;;;;;20.60;10.30;;;;;;;-0.48;70.24;101928.98;107116;1255;60469;-86
2023/02/16 06:06:11;;;;;;;18.30;9.50;;;;;;;0.07;68.44;101933.27;107351;1255;73744;-85
2023/02/16 06:08:39;;;;;;;19.90;10.00;;;;;;;0.62;66.97;101933.10;107017;1254;63667;-86
2023/02/16 06:11:34;;;;;;;15.00;7.10;;;;;;;1.17;65.16;101934.20;107038;1254;73295;-86
2023/02/16 06:13:58;;;;;;;14.00;6.90;;;;;;;1.65;62.85;101926.59;107252;1257;60402;-86
2023/02/16 06:16:27;;;;;;;9.50;5.60;;;;;;;2.14;61.71;101930.75;107785;1254;60031;-87
2023/02/16 06:18:56;;;;;;;33.90;7.20;;;;;;;2.78;60.51;101934.74;108567;1255;73845;-85
2023/02/16 06:21:25;;;;;;;12.70;4.40;;;;;;;3.45;58.85;101939.23;107533;1254;63351;-86
2023/02/16 06:23:52;;;;;;;10.00;4.00;;;;;;;4.06;57.07;101943.77;107604;1254;72853;-86
2023/02/16 06:26:20;;;;;;;5.90;3.40;;;;;;;4.69;55.21;101948.00;107876;1254;59540;-85
2023/02/16 06:28:48;;;;;;;4.90;3.00;;;;;;;5.27;53.84;101951.80;107948;1253;60422;-86
2023/02/16 06:31:15;;;;;;;5.80;3.20;;;;;;;5.77;52.49;101949.54;108171;1257;74776;-85
2023/02/16 06:33:46;;;;;;;7.20;2.80;;;;;;;6.27;50.99;101947.06;107997;1256;65260;-87
2023/02/16 06:36:15;;;;;;;5.80;3.20;;;;;;;6.72;49.32;101946.77;108061;1254;73804;-87
2023/02/16 06:38:56;;;;;;;4.50;3.10;;;;;;;7.15;48.27;101950.62;108060;1253;60572;-87
2023/02/16 06:41:38;;;;;;;4.90;3.40;;;;;;;7.33;47.25;101945.48;108350;1254;60517;-86
2023/02/16 06:44:12;;;;;;;9.60;4.00;;;;;;;7.05;46.41;101946.17;108077;1254;73664;-85
2023/02/16 06:46:45;;;;;;;5.90;3.50;;;;;;;6.48;46.17;101944.67;108100;1254;64231;-86
2023/02/16 06:49:16;;;;;;;4.60;2.50;;;;;;;5.91;46.50;101948.41;108183;1254;72637;-84
2023/02/16 06:51:46;;;;;;;5.80;4.20;;;;;;;5.27;47.45;101942.94;107869;1260;60336;-86
2023/02/16 06:54:15;;;;;;;5.30;3.20;;;;;;;4.74;47.93;101947.24;108182;1254;60400;-85
2023/02/16 06:56:42;;;;;;;6.30;4.10;;;;;;;4.26;48.59;101945.63;108181;1258;73975;-86
2023/02/16 06:59:11;;;;;;;7.10;3.50;;;;;;;3.77;48.98;101940.48;107892;1254;63225;-88
2023/02/16 07:01:44;;;;;;;4.50;3.40;;;;;;;3.35;49.72;101943.13;107828;1258;73202;-86
2023/02/16 07:04:12;;;;;;;7.30;3.80;;;;;;;2.97;50.40;101942.04;107972;1256;58529;-87
2023/02/16 07:06:40;;;;;;;6.80;4.20;;;;;;;2.62;51.27;101940.02;107767;1256;60477;-86
2023/02/16 07:09:13;;;;;;;5.30;3.40;;;;;;;2.34;51.91;101943.95;107859;1259;72947;-86
2023/02/16 07:11:40;;;;;;;5.60;3.90;;;;;;;2.11;52.55;101940.60;108392;1254;63987;-86
2023/02/16 07:14:12;;;;;;;7.00;4.90;;;;;;;1.83;53.23;101938.45;108339;1254;72593;-88
2023/02/16 07:16:41;;;;;;;9.80;4.60;;;;;;;1.60;53.85;101939.70;108039;1257;60367;-87
2023/02/16 07:19:09;;;;;;;9.20;5.60;;;;;;;1.41;54.49;101938.34;108308;1253;60410;-86
2023/02/16 07:21:39;;;;;;;6.50;4.50;;;;;;;1.15;55.24;101936.79;108064;1256;784414;-85
2023/02/16 07:25:54;;;;;;;15.00;5.20;;;;;;;0.82;56.01;101934.02;104505;1293;612778;-85
2023/02/16 07:28:25;;;;;;;9.50;5.20;;;;;;;0.67;56.33;101932.09;106915;1269;59773;-84
2023/02/16 07:30:52;;;;;;;6.80;4.20;;;;;;;0.58;56.99;101937.41;106381;1268;59979;-86
2023/02/16 07:33:24;;;;;;;8.30;5.90;;;;;;;0.47;57.24;101933.59;106363;1268;72178;-86
2023/02/16 07:35:51;;;;;;;7.70;4.70;;;;;;;0.41;57.77;101932.53;107146;1261;63767;-85
2023/02/16 07:38:19;;;;;;;6.30;4.30;;;;;;;0.33;57.78;101925.98;106550;1263;697269;-86
2023/02/16 07:40:46;;;;;;;6.30;4.40;;;;;;;0.23;58.03;101922.67;107268;1254;58860;-85
2023/02/16 07:43:15;;;;;;;6.70;5.30;;;;;;;0.14;58.45;101921.27;107397;1254;61271;-85
2023/02/16 07:45:45;;;;;;;8.40;4.20;;;;;;;0.02;58.77;101918.46;107257;1263;71050;-86
2023/02/16 07:48:12;;;;;;;9.40;4.40;;;;;;;-0.05;58.93;101915.34;107478;1254;63945;-86
2023/02/16 07:50:50;;;;;;;10.10;5.10;;;;;;;-0.11;59.28;101910.15;107396;1254;72697;-86
2023/02/16 07:53:17;;;;;;;11.00;5.30;;;;;;;-0.13;59.52;101913.75;107335;1254;59860;-87
2023/02/16 07:55:45;;;;;;;12.30;4.30;;;;;;;-0.13;59.58;101915.13;107558;1254;61303;-86
2023/02/16 07:58:26;;;;;;;9.70;4.80;;;;;;;-0.13;59.76;101909.96;107967;1255;71914;-86
2023/02/16 08:01:07;;;;;;;8.70;4.50;;;;;;;-0.14;60.08;101911.85;107833;1255;64019;-87
2023/02/16 08:03:48;;;;;;;7.30;5.10;;;;;;;-0.22;60.63;101913.88;109167;1253;73460;-85
2023/02/16 08:06:19;;;;;;;8.60;5.40;;;;;;;-0.23;60.68;101912.66;107840;1257;61695;-85
2023/02/16 08:08:46;;;;;;;9.90;5.40;;;;;;;-0.24;60.74;101911.63;107220;1259;61782;-87
2023/02/16 08:11:19;;;;;;;11.00;6.30;;;;;;;-0.25;60.80;101911.79;107650;1259;73055;-86
2023/02/16 08:13:49;;;;;;;9.50;4.70;;;;;;;-0.22;61.05;101906.99;107722;1259;63791;-86
2023/02/16 08:16:18;;;;;;;9.30;5.20;;;;;;;-0.25;61.05;101910.95;107969;1259;73995;-87
2023/02/16 08:18:49;;;;;;;7.10;4.90;;;;;;;-0.31;61.70;101910.73;108662;1259;59436;-86
2023/02/16 08:21:19;;;;;;;8.20;5.90;;;;;;;-0.34;61.85;101908.84;108795;1259;60006;-84
2023/02/16 08:23:52;;;;;;;5.70;4.40;;;;;;;-0.33;61.80;101905.91;107831;1259;74172;-85
2023/02/16 08:26:22;;;;;;;11.60;6.00;;;;;;;-0.34;61.59;101908.14;107364;1259;64851;-85
2023/02/16 08:28:49;;;;;;;7.20;5.70;;;;;;;-0.31;61.57;101907.13;107550;1259;74086;-86
2023/02/16 08:31:24;;;;;;;7.90;5.20;;;;;;;-0.27;61.63;101900.09;107466;1259;60296;-85
2023/02/16 08:33:55;;;;;;;6.90;4.90;;;;;;;-0.25;61.72;101906.80;107441;1259;60032;-85
2023/02/16 08:36:25;;;;;;;6.80;4.50;;;;;;;-0.21;61.79;101906.66;107409;1260;72696;-85
2023/02/16 08:38:55;;;;;;;8.10;4.30;;;;;;;-0.12;61.93;101905.84;107529;1260;63871;-87
2023/02/16 08:41:38;;;;;;;6.20;5.20;;;;;;;-0.00;61.56;101904.52;107732;1257;72451;-84
2023/02/16 08:44:14;;;;;;;7.10;4.30;;;;;;;0.23;61.27;101900.66;107471;1259;60336;-86
2023/02/16 08:46:44;;;;;;;8.90;5.10;;;;;;;0.72;60.62;101901.27;106818;1264;60700;-87
2023/02/16 08:49:12;;;;;;;6.50;5.10;;;;;;;1.55;59.25;101905.39;107596;1259;73901;-87
2023/02/16 08:51:43;;;;;;;5.40;4.70;;;;;;;2.39;56.81;101907.00;107508;1259;64744;-85
2023/02/16 08:54:20;;;;;;;5.70;3.70;;;;;;;2.99;54.28;101908.33;107609;1259;72391;-86
2023/02/16 08:56:49;;;;;;;6.30;3.90;;;;;;;3.75;52.71;101909.35;107395;1260;59744;-85
2023/02/16 08:59:18;;;;;;;5.70;3.90;;;;;;;4.66;50.76;101905.59;107389;1263;61038;-86
2023/02/16 09:02:32;;;;;;;5.60;3.90;;;;;;;5.54;48.47;101901.55;106966;1261;73218;-86
2023/02/16 09:04:59;;;;;;;3.20;2.80;;;;;;;6.53;45.39;101904.77;106601;1259;64907;-87
2023/02/16 09:11:55;;;;;;;9.60;4.00;;;;;;;8.06;41.02;101896.35;106668;1259;61024;-87
2023/02/16 09:14:23;;;;;;;6.10;3.50;;;;;;;8.74;39.73;101899.20;106692;1259;61295;-87
2023/02/16 09:16:51;;;;;;;7.50;3.00;;;;;;;9.33;39.08;101889.55;106914;1259;73621;-86
2023/02/16 09:19:19;;;;;;;4.40;2.70;;;;;;;9.90;38.14;101892.63;106904;1258;63943;-87
2023/02/16 09:21:49;;;;;;;3.10;2.40;;;;;;;10.33;36.34;101889.46;107343;1264;74084;-87
2023/02/16 09:24:20;;;;;;;2.70;2.20;;;;;;;10.66;34.79;101885.73;107501;1259;60426;-86
2023/02/16 09:27:06;;;;;;;4.00;2.60;;;;;;;10.77;33.90;101887.38;107485;1259;59040;-85
2023/02/16 09:29:39;;;;;;;2.80;2.50;;;;;;;10.80;33.97;101890.42;107265;1259;75166;-85
2023/02/16 09:32:07;;;;;;;3.20;2.10;;;;;;;11.04;33.42;101887.88;107440;1259;63704;-87
2023/02/16 09:34:43;;;;;;;4.70;2.30;;;;;;;11.09;32.92;101878.77;107710;1259;73347;-88
2023/02/16 09:41:07;;;;;;;2.80;1.10;;;;;;;10.80;30.75;101872.25;106984;1260;60198;-86
2023/02/16 09:43:46;;;;;;;2.50;1.60;;;;;;;9.96;30.81;101869.53;107094;1263;73683;-88
2023/02/16 09:46:17;;;;;;;2.00;1.60;;;;;;;9.09;31.79;101872.42;106950;1260;63118;-86
2023/02/16 09:48:49;;;;;;;1.80;1.50;;;;;;;8.43;33.03;101873.98;106956;1262;72943;-87
2023/02/16 09:51:40;;;;;;;3.50;2.20;;;;;;;7.87;33.86;101879.29;106330;1264;60894;-89
2023/02/16 09:54:21;;;;;;;4.60;2.00;;;;;;;7.41;34.98;101872.90;106823;1262;60258;-86
2023/02/16 10:00:48;;;;;;;4.00;2.40;;;;;;;7.45;35.51;101860.09;106420;1262;63563;-88
2023/02/16 10:03:44;;;;;;;3.50;2.60;;;;;;;7.58;35.70;101868.98;107354;1262;72836;-87
2023/02/16 10:06:15;;;;;;;6.00;2.30;;;;;;;7.52;35.67;101866.19;107598;1262;61042;-86
2023/02/16 10:08:49;;;;;;;5.70;2.60;;;;;;;7.28;35.75;101870.98;107757;1262;60289;-87
2023/02/16 10:11:37;;;;;;;4.50;2.80;;;;;;;7.02;35.95;101864.69;107795;1261;73169;-86
2023/02/16 10:14:11;;;;;;;4.80;2.70;;;;;;;6.93;36.54;101859.89;107386;1262;64393;-87
2023/02/16 10:16:56;;;;;;;3.80;2.80;;;;;;;7.17;36.93;101858.92;106988;1262;73619;-86
2023/02/16 10:19:32;;;;;;;2.40;1.90;;;;;;;7.61;36.47;101855.15;106977;1266;59951;-87
2023/02/16 10:22:02;;;;;;;2.50;2.30;;;;;;;8.14;36.07;101860.05;107152;1259;60299;-87
2023/02/16 10:24:30;;;;;;;4.80;2.40;;;;;;;8.49;35.63;101862.35;107122;1259;74214;-85
2023/02/16 10:27:03;;;;;;;6.70;2.80;;;;;;;8.39;35.06;101865.59;106907;1259;62880;-85
2023/02/16 10:29:30;;;;;;;4.40;2.30;;;;;;;8.03;35.06;101863.68;106742;1259;72423;-86
2023/02/16 10:32:25;;;;;;;4.50;3.40;;;;;;;7.93;35.36;101861.73;106616;1262;61351;-85
2023/02/16 10:35:10;;;;;;;3.60;3.30;;;;;;;8.10;34.89;101857.90;106553;1259;60474;-86
2023/02/16 10:37:56;;;;;;;2.80;2.20;;;;;;;8.47;34.75;101854.04;106438;1258;73917;-85
2023/02/16 10:40:42;;;;;;;6.10;3.00;;;;;;;8.94;34.55;101851.11;106600;1258;64660;-86
2023/02/16 10:43:20;;;;;;;5.90;3.30;;;;;;;9.19;34.61;101846.25;106536;1259;73567;-86
2023/02/16 10:45:52;;;;;;;3.70;1.90;;;;;;;9.22;34.37;101849.82;106619;1259;60089;-88
2023/02/16 10:48:20;;;;;;;3.70;2.70;;;;;;;9.05;34.41;101847.27;106635;1259;61891;-86
2023/02/16 10:51:01;;;;;;;3.70;2.70;;;;;;;8.63;34.32;101856.50;106590;1259;73961;-86
2023/02/16 10:54:07;;;;;;;3.80;2.70;;;;;;;7.84;35.27;101855.38;106830;1263;63930;-88
2023/02/16 10:56:52;;;;;;;4.30;2.70;;;;;;;7.14;36.39;101849.44;106548;1263;72596;-86
2023/02/16 10:59:21;;;;;;;3.80;2.80;;;;;;;7.07;37.15;101850.14;107193;1263;59517;-87
2023/02/16 11:01:53;;;;;;;4.20;2.70;;;;;;;7.28;36.95;101848.38;106871;1264;61345;-88
2023/02/16 11:04:40;;;;;;;2.30;2.10;;;;;;;7.28;36.25;101843.84;106644;1263;74170;-87
2023/02/16 11:07:16;;;;;;;11.10;2.80;;;;;;;7.26;36.31;101839.55;106707;1263;64814;-87
2023/02/16 11:09:46;;;;;;;2.90;2.30;;;;;;;7.28;36.66;101834.45;106611;1264;72661;-85
2023/02/16 11:12:16;;;;;;;3.50;2.10;;;;;;;7.29;36.49;101834.60;106167;1264;59872;-88
2023/02/16 11:15:15;;;;;;;2.90;1.70;;;;;;;7.22;36.72;101833.23;106369;1268;60015;-89
2023/02/16 11:17:51;;;;;;;3.30;2.20;;;;;;;6.96;36.61;101838.94;106222;1264;74015;-85
2023/02/16 11:20:41;;;;;;;4.10;2.80;;;;;;;6.95;37.15;101836.71;106429;1263;64904;-87
2023/02/16 11:23:22;;;;;;;3.00;2.40;;;;;;;6.98;37.63;101834.73;106460;1263;72437;-86
2023/02/16 11:26:13;;;;;;;3.10;2.30;;;;;;;6.83;37.80;101832.30;106287;1264;60629;-85
2023/02/16 11:28:45;;;;;;;2.70;2.00;;;;;;;6.50;37.87;101839.52;106694;1268;61172;-86
2023/02/16 11:31:20;;;;;;;5.10;2.10;;;;;;;6.10;38.23;101835.73;106933;1264;74036;-88
2023/02/16 11:34:30;;;;;;;6.00;2.70;;;;;;;5.77;38.46;101838.14;107295;1258;63835;-87
2023/02/16 11:37:17;;;;;;;3.30;2.30;;;;;;;5.44;39.20;101842.61;107396;1260;73087;-86
2023/02/16 11:40:14;;;;;;;2.50;2.20;;;;;;;5.04;39.90;101845.40;107991;1259;59545;-86
2023/02/16 11:42:54;;;;;;;3.80;2.30;;;;;;;4.69;40.66;101844.23;107497;1258;60140;-87
2023/02/16 11:45:31;;;;;;;4.50;2.50;;;;;;;4.50;41.07;101845.04;107961;1259;73123;-88
2023/02/16 11:48:19;;;;;;;5.00;2.70;;;;;;;4.43;41.44;101842.56;107927;1259;63623;-89
2023/02/16 11:51:03;;;;;;;5.80;2.70;;;;;;;4.39;41.55;101842.28;107280;1259;73827;-87
2023/02/16 11:53:32;;;;;;;5.50;2.50;;;;;;;4.40;41.74;101838.63;107466;1260;60492;-88
2023/02/16 11:56:26;;;;;;;3.80;2.40;;;;;;;4.48;41.55;101834.17;107536;1259;60449;-87
2023/02/16 11:59:05;;;;;;;3.00;1.90;;;;;;;4.56;41.77;101831.64;107391;1263;73547;-86
2023/02/16 12:01:43;;;;;;;3.00;2.50;;;;;;;4.54;41.13;101832.86;107702;1259;63195;-89
2023/02/16 12:04:29;;;;;;;3.40;2.40;;;;;;;4.43;40.84;101837.71;107565;1259;72929;-87
2023/02/16 12:07:21;;;;;;;6.30;2.60;;;;;;;4.27;41.45;101835.34;107734;1258;59489;-88
2023/02/16 12:10:06;;;;;;;2.20;1.70;;;;;;;4.12;41.57;101838.33;107527;1259;61186;-87
2023/02/16 12:13:01;;;;;;;3.30;2.00;;;;;;;3.98;42.30;101829.85;107326;1259;72780;-87
2023/02/16 12:16:30;;;;;;;2.90;2.20;;;;;;;3.82;42.24;101828.86;107270;1259;64876;-87
2023/02/16 12:19:33;;;;;;;3.30;1.90;;;;;;;3.54;42.67;101822.80;107163;1262;72996;-87
2023/02/16 12:22:39;;;;;;;3.10;2.20;;;;;;;3.37;43.41;101822.11;106812;1263;59357;-85
2023/02/16 12:25:35;;;;;;;4.20;2.40;;;;;;;3.14;43.41;101820.44;107160;1263;60649;-87
2023/02/16 12:28:19;;;;;;;4.60;2.60;;;;;;;3.05;44.19;101817.75;107636;1264;74632;-89
2023/02/16 12:31:16;;;;;;;5.40;2.60;;;;;;;3.02;44.33;101815.38;107261;1265;64316;-89
2023/02/16 12:34:02;;;;;;;5.80;2.80;;;;;;;2.98;44.55;101814.20;107351;1265;72589;-86
2023/02/16 12:36:43;;;;;;;3.40;2.10;;;;;;;2.95;44.81;101813.02;108231;1263;59322;-86
2023/02/16 12:39:30;;;;;;;3.70;2.20;;;;;;;2.92;45.29;101811.85;108958;1263;60487;-86
2023/02/16 12:42:25;;;;;;;4.30;2.50;;;;;;;3.04;44.87;101816.58;108611;1264;74271;-88
2023/02/16 12:44:56;;;;;;;2.50;2.10;;;;;;;3.15;44.84;101811.98;107150;1265;63881;-87
2023/02/16 12:47:29;;;;;;;4.60;2.90;;;;;;;3.31;44.49;101813.54;107565;1262;72422;-86
2023/02/16 12:50:26;;;;;;;2.40;1.70;;;;;;;3.33;44.09;101814.72;108186;1258;59450;-85